Time;durP1;ratioP1;P1;durP2;ratioP2;P2;SDS_P1;SDS_P2;PMS_P1;PMS_P2;Temp;Humidity;BMP_temperature;BMP_pressure;BME280_temperature;BME280_humidity;BME280_pressure;Samples;Min_cycle;Max_cycle;Signal;HPM_P1;HPM_P2
2021/11/17 02:26:02;;;;;;;10.53;7.87;;;8.80;99.90;;;;;;4972523;28;20204;-69
2021/11/17 02:28:45;;;;;;;11.67;7.53;;;8.80;99.90;;;;;;4971836;28;20256;-69
2021/11/17 02:31:50;;;;;;;10.90;7.43;;;8.70;99.90;;;;;;4959811;28;20256;-69
2021/11/17 02:34:36;;;;;;;14.20;9.07;;;8.70;99.90;;;;;;4971879;28;20633;-68
2021/11/17 02:37:34;;;;;;;11.00;8.00;;;8.70;99.90;;;;;;4972329;28;20557;-70
2021/11/17 02:40:28;;;;;;;11.63;7.67;;;8.60;99.90;;;;;;4954720;28;20280;-70
2021/11/17 02:43:17;;;;;;;12.47;8.80;;;8.70;99.90;;;;;;4971972;28;20213;-69
2021/11/17 02:45:59;;;;;;;12.07;8.13;;;8.60;99.90;;;;;;4971969;28;20662;-70
2021/11/17 02:48:39;;;;;;;12.23;7.97;;;8.60;99.90;;;;;;4971915;28;20685;-70
2021/11/17 02:51:26;;;;;;;10.47;7.70;;;8.70;99.90;;;;;;4971610;28;20259;-71
2021/11/17 02:54:12;;;;;;;11.53;8.33;;;8.60;99.90;;;;;;4972253;28;20214;-71
2021/11/17 02:56:56;;;;;;;13.73;8.33;;;8.60;99.90;;;;;;4971853;28;20205;-71
2021/11/17 02:59:47;;;;;;;11.53;7.57;;;8.60;99.90;;;;;;4971673;28;20264;-72
2021/11/17 03:02:37;;;;;;;9.73;7.50;;;8.70;99.90;;;;;;4971187;28;20241;-70
2021/11/17 03:05:23;;;;;;;10.93;7.53;;;8.70;99.90;;;;;;4972176;28;20272;-68
2021/11/17 03:08:06;;;;;;;11.80;7.77;;;8.70;99.90;;;;;;4971650;28;20833;-69
2021/11/17 03:11:01;;;;;;;10.97;7.07;;;8.60;99.90;;;;;;4960723;28;20712;-68
2021/11/17 03:13:50;;;;;;;10.13;7.73;;;8.70;99.90;;;;;;4971186;28;20292;-68
2021/11/17 03:16:33;;;;;;;17.30;8.97;;;8.60;99.90;;;;;;4971348;28;20205;-69
2021/11/17 03:19:16;;;;;;;10.00;7.47;;;8.60;99.90;;;;;;4960069;28;20256;-69
2021/11/17 03:21:58;;;;;;;8.33;6.57;;;8.60;99.90;;;;;;4971343;28;20716;-70
2021/11/17 03:24:47;;;;;;;8.50;6.37;;;8.50;99.90;;;;;;4971394;28;20213;-70
2021/11/17 03:27:30;;;;;;;10.67;7.40;;;8.50;99.90;;;;;;4971329;28;20260;-70
2021/11/17 03:30:25;;;;;;;9.43;7.57;;;8.50;99.90;;;;;;4971154;28;20213;-69
2021/11/17 03:33:12;;;;;;;9.97;6.50;;;8.50;99.90;;;;;;4961922;28;20352;-70
2021/11/17 03:35:56;;;;;;;9.80;6.63;;;8.40;99.90;;;;;;4971090;28;20619;-69
2021/11/17 03:38:38;;;;;;;9.83;7.50;;;8.40;99.90;;;;;;4971092;28;20579;-69
2021/11/17 03:41:34;;;;;;;11.50;7.63;;;8.50;99.90;;;;;;4971843;28;20237;-69
2021/11/17 03:44:41;;;;;;;10.33;7.20;;;8.50;99.90;;;;;;4941945;28;20205;-68
2021/11/17 03:47:42;;;;;;;9.03;6.33;;;8.40;99.90;;;;;;4971004;28;20221;-70
2021/11/17 03:50:28;;;;;;;10.53;6.47;;;8.60;99.90;;;;;;4970476;28;20283;-69
2021/11/17 03:53:11;;;;;;;10.60;6.53;;;8.60;99.90;;;;;;4971139;28;20201;-69
2021/11/17 03:55:55;;;;;;;13.07;7.33;;;8.60;99.90;;;;;;4971349;28;20206;-69
2021/11/17 03:58:34;;;;;;;10.07;6.73;;;8.60;99.90;;;;;;4970925;28;20205;-69
2021/11/17 04:01:16;;;;;;;11.00;7.50;;;8.50;99.90;;;;;;4971491;28;20323;-69
2021/11/17 04:04:08;;;;;;;11.40;7.03;;;8.40;99.90;;;;;;4959586;28;20214;-68
2021/11/17 04:06:48;;;;;;;11.27;6.50;;;8.40;99.90;;;;;;4963128;28;20213;-71
2021/11/17 04:09:27;;;;;;;10.70;7.63;;;8.40;99.90;;;;;;4971100;28;20214;-69
2021/11/17 04:12:11;;;;;;;10.20;7.63;;;8.40;99.90;;;;;;4971237;28;20213;-69
2021/11/17 04:14:51;;;;;;;10.57;7.23;;;8.40;99.90;;;;;;4971488;28;20214;-70
2021/11/17 04:17:39;;;;;;;11.73;6.93;;;8.50;99.90;;;;;;4970810;28;20657;-69
2021/11/17 04:20:20;;;;;;;12.90;6.67;;;8.40;99.90;;;;;;4971037;28;20217;-69
2021/11/17 04:23:03;;;;;;;10.93;6.50;;;8.50;99.90;;;;;;4971387;28;20229;-70
2021/11/17 04:25:43;;;;;;;12.17;7.67;;;8.50;99.90;;;;;;4970485;28;20599;-71
2021/11/17 04:28:23;;;;;;;11.10;8.00;;;8.40;99.90;;;;;;4970808;28;20210;-69
2021/11/17 04:31:23;;;;;;;10.97;7.23;;;8.40;99.90;;;;;;4971233;28;20210;-69
2021/11/17 04:34:11;;;;;;;10.70;6.53;;;8.40;99.90;;;;;;4958566;28;20205;-69
2021/11/17 04:37:13;;;;;;;9.67;6.43;;;8.40;99.90;;;;;;4958711;28;20256;-70
2021/11/17 04:40:00;;;;;;;11.20;7.63;;;8.40;99.90;;;;;;4959267;28;20209;-69
2021/11/17 04:42:57;;;;;;;6.13;5.47;;;8.50;99.90;;;;;;4973381;28;20241;-70
2021/11/17 04:45:54;;;;;;;7.67;4.43;;;8.40;99.90;;;;;;4974106;28;20209;-71
2021/11/17 04:48:37;;;;;;;7.53;4.80;;;8.20;99.90;;;;;;4973610;28;20231;-71
2021/11/17 04:51:26;;;;;;;6.17;5.20;;;8.20;99.90;;;;;;4974206;28;20632;-69
2021/11/17 04:54:32;;;;;;;7.07;4.33;;;8.10;99.90;;;;;;4974485;28;20267;-70
2021/11/17 04:57:15;;;;;;;5.97;4.50;;;8.20;99.90;;;;;;4974446;28;20213;-70
2021/11/17 04:59:58;;;;;;;7.50;4.70;;;8.30;99.90;;;;;;4974214;28;20214;-71
2021/11/17 05:02:47;;;;;;;5.93;4.53;;;8.20;99.90;;;;;;4973581;28;20241;-70
2021/11/17 05:05:28;;;;;;;8.00;4.87;;;8.20;99.90;;;;;;4973903;28;20228;-70
2021/11/17 05:08:02;;;;;;;5.63;4.30;;;8.10;99.90;;;;;;4974058;28;20209;-71
2021/11/17 05:10:43;;;;;;;6.50;4.57;;;8.20;99.90;;;;;;4973711;28;20652;-70
2021/11/17 05:13:20;;;;;;;6.37;4.47;;;8.20;99.90;;;;;;4973136;28;20277;-69
2021/11/17 05:15:58;;;;;;;7.17;5.27;;;8.20;99.90;;;;;;4974027;28;20245;-69
2021/11/17 05:18:33;;;;;;;6.17;4.37;;;8.10;99.90;;;;;;4973170;28;20213;-69
2021/11/17 05:21:13;;;;;;;6.07;5.23;;;8.20;99.90;;;;;;4973745;28;20261;-68
2021/11/17 05:23:59;;;;;;;7.83;4.90;;;8.10;99.90;;;;;;4973638;28;20215;-70
2021/11/17 05:26:40;;;;;;;6.07;4.20;;;8.10;99.90;;;;;;4973191;28;20252;-70
2021/11/17 05:29:26;;;;;;;12.20;5.20;;;8.00;99.90;;;;;;4961092;28;20256;-70
2021/11/17 05:32:16;;;;;;;7.33;4.93;;;8.00;99.90;;;;;;4973196;28;20353;-71
2021/11/17 05:34:56;;;;;;;10.27;7.27;;;8.10;99.90;;;;;;4973685;28;20210;-71
2021/11/17 05:37:34;;;;;;;7.93;5.73;;;8.10;99.90;;;;;;4972911;28;20661;-71
2021/11/17 05:40:15;;;;;;;9.00;6.00;;;8.00;99.90;;;;;;4973702;28;20210;-69
2021/11/17 05:42:56;;;;;;;5.97;4.93;;;8.00;99.90;;;;;;4960534;28;20236;-71
2021/11/17 05:45:36;;;;;;;5.07;4.00;;;8.00;99.90;;;;;;4972448;28;20768;-70
2021/11/17 05:48:14;;;;;;;6.40;4.90;;;8.00;99.90;;;;;;4973533;28;20221;-70
2021/11/17 05:50:58;;;;;;;8.07;5.37;;;8.00;99.90;;;;;;4973266;28;20260;-70
2021/11/17 05:53:42;;;;;;;7.73;4.93;;;8.00;99.90;;;;;;4959861;28;20253;-70
2021/11/17 05:56:22;;;;;;;9.53;5.70;;;8.00;99.90;;;;;;4971400;28;20241;-70
2021/11/17 05:59:06;;;;;;;7.20;5.33;;;8.10;99.90;;;;;;4972049;28;20677;-69
2021/11/17 06:01:48;;;;;;;7.20;5.53;;;8.00;99.90;;;;;;4972699;28;20642;-68
2021/11/17 06:04:15;;;;;;;8.10;6.43;;;8.10;99.90;;;;;;4972412;28;20338;-69
2021/11/17 06:06:41;;;;;;;10.80;6.83;;;8.10;99.90;;;;;;4972518;28;20768;-69
2021/11/17 06:09:08;;;;;;;9.20;5.03;;;8.10;99.90;;;;;;4972640;28;20256;-68
2021/11/17 06:11:40;;;;;;;7.80;5.67;;;8.10;99.90;;;;;;4972140;28;20209;-68
2021/11/17 06:14:10;;;;;;;9.93;5.63;;;8.10;99.90;;;;;;4972677;28;20217;-68
2021/11/17 06:16:41;;;;;;;11.03;7.23;;;8.00;99.90;;;;;;4972260;28;20206;-69
2021/11/17 06:19:09;;;;;;;7.13;5.53;;;8.00;99.90;;;;;;4972394;28;20608;-70
2021/11/17 06:21:39;;;;;;;11.60;6.90;;;8.10;99.90;;;;;;4972604;28;20237;-69
2021/11/17 06:24:08;;;;;;;7.50;5.70;;;8.30;99.90;;;;;;4972633;28;20292;-69
2021/11/17 06:26:39;;;;;;;8.53;6.37;;;8.20;99.90;;;;;;4972894;28;20336;-69
2021/11/17 06:29:10;;;;;;;8.43;4.83;;;8.20;99.90;;;;;;4965754;28;20673;-68
2021/11/17 06:31:40;;;;;;;9.03;6.07;;;8.10;99.90;;;;;;4966354;28;20280;-70
2021/11/17 06:34:31;;;;;;;9.03;6.20;;;8.00;99.90;;;;;;4972315;28;20206;-70
2021/11/17 06:37:00;;;;;;;9.07;5.87;;;8.00;99.90;;;;;;4971856;28;20217;-72
2021/11/17 06:39:30;;;;;;;7.50;5.73;;;8.00;99.90;;;;;;4971998;28;20695;-71
2021/11/17 06:42:00;;;;;;;7.53;5.63;;;8.10;99.90;;;;;;4971944;28;20241;-71
2021/11/17 06:44:27;;;;;;;6.40;4.93;;;8.10;99.90;;;;;;4971750;28;20252;-70
2021/11/17 06:46:54;;;;;;;6.60;4.47;;;8.20;99.90;;;;;;4972051;28;20218;-70
2021/11/17 06:49:21;;;;;;;10.17;5.57;;;8.10;99.90;;;;;;4970647;28;20206;-70
2021/11/17 06:51:49;;;;;;;6.37;5.13;;;8.10;99.90;;;;;;4972073;28;20216;-70
2021/11/17 06:54:16;;;;;;;9.17;6.07;;;8.10;99.90;;;;;;4970851;28;20630;-70
2021/11/17 06:56:43;;;;;;;7.73;5.57;;;8.20;99.90;;;;;;4971326;28;20268;-70
2021/11/17 06:59:12;;;;;;;6.47;4.97;;;8.10;99.90;;;;;;4971193;28;20205;-70
2021/11/17 07:01:39;;;;;;;8.13;5.30;;;8.10;99.90;;;;;;4971462;28;20210;-70
2021/11/17 07:04:06;;;;;;;7.17;4.53;;;8.10;99.90;;;;;;4971415;28;20673;-70
2021/11/17 07:06:33;;;;;;;6.73;4.20;;;8.00;99.90;;;;;;4971875;28;20205;-69
2021/11/17 07:09:00;;;;;;;7.20;4.87;;;8.00;99.90;;;;;;4971717;28;20208;-70
2021/11/17 07:11:28;;;;;;;8.23;4.97;;;8.10;99.90;;;;;;4971381;28;20260;-71
2021/11/17 07:13:55;;;;;;;8.90;4.87;;;8.10;99.90;;;;;;4971669;28;20213;-71
2021/11/17 07:16:23;;;;;;;6.93;4.83;;;8.20;99.90;;;;;;4971206;28;20246;-71
2021/11/17 07:18:50;;;;;;;6.83;5.07;;;8.20;99.90;;;;;;4967570;28;20277;-70
2021/11/17 07:21:17;;;;;;;10.23;6.13;;;8.20;99.90;;;;;;4971538;28;20205;-70
2021/11/17 07:23:44;;;;;;;7.13;5.33;;;8.30;99.90;;;;;;4971516;28;20233;-71
2021/11/17 07:26:11;;;;;;;8.17;5.90;;;8.20;99.90;;;;;;4971002;28;20677;-70
2021/11/17 07:28:39;;;;;;;8.47;6.33;;;8.20;99.90;;;;;;4971007;28;20564;-70
2021/11/17 07:31:06;;;;;;;8.33;5.87;;;8.20;99.90;;;;;;4971902;28;20209;-69
2021/11/17 07:33:35;;;;;;;8.50;5.77;;;8.20;99.90;;;;;;4971906;28;20213;-70
2021/11/17 07:36:02;;;;;;;10.80;7.40;;;8.20;99.90;;;;;;4972022;28;20684;-68
2021/11/17 07:38:29;;;;;;;7.40;5.87;;;8.10;99.90;;;;;;4971000;28;20210;-69
2021/11/17 07:40:56;;;;;;;9.57;5.57;;;8.10;99.90;;;;;;4971419;28;20558;-70
2021/11/17 07:43:25;;;;;;;10.03;6.37;;;8.20;99.90;;;;;;4964233;28;20230;-72
2021/11/17 07:45:52;;;;;;;9.67;6.20;;;8.10;99.90;;;;;;4970874;28;20233;-71
2021/11/17 07:48:23;;;;;;;10.90;6.93;;;8.10;99.90;;;;;;4970956;28;20221;-71
2021/11/17 07:50:52;;;;;;;8.97;6.53;;;8.20;99.90;;;;;;4971595;28;20217;-72
2021/11/17 07:53:22;;;;;;;10.63;6.67;;;8.10;99.90;;;;;;4958755;28;20280;-70
2021/11/17 07:55:50;;;;;;;8.53;6.00;;;8.20;99.90;;;;;;4970811;28;20589;-71
2021/11/17 07:58:19;;;;;;;6.93;5.53;;;8.30;99.90;;;;;;4970962;28;20202;-72
2021/11/17 08:00:49;;;;;;;7.53;5.73;;;8.20;99.90;;;;;;4971052;28;20217;-72
2021/11/17 08:03:17;;;;;;;8.83;6.20;;;8.20;99.90;;;;;;4968892;28;20237;-71
2021/11/17 08:05:46;;;;;;;8.17;6.47;;;8.20;99.90;;;;;;4968735;28;20206;-71
2021/11/17 08:08:14;;;;;;;9.43;6.83;;;8.30;99.90;;;;;;4969867;28;20644;-71
2021/11/17 08:10:42;;;;;;;9.47;7.27;;;8.20;99.90;;;;;;4971187;28;20300;-71
2021/11/17 08:13:09;;;;;;;10.23;7.10;;;8.30;99.90;;;;;;4969350;28;20264;-72
2021/11/17 08:15:37;;;;;;;8.30;6.50;;;8.30;99.90;;;;;;4972640;28;20205;-71
2021/11/17 08:18:06;;;;;;;12.97;7.27;;;8.30;99.90;;;;;;4967957;28;20214;-71
2021/11/17 08:20:33;;;;;;;10.47;6.13;;;8.30;99.90;;;;;;4972591;28;20577;-71
2021/11/17 08:23:01;;;;;;;9.73;6.63;;;8.30;99.90;;;;;;4974830;28;20388;-72
2021/11/17 08:25:32;;;;;;;9.40;6.00;;;8.20;99.90;;;;;;4973797;28;20260;-71
2021/11/17 08:27:59;;;;;;;10.40;6.30;;;8.20;99.90;;;;;;4973211;28;20205;-72
2021/11/17 08:30:29;;;;;;;12.87;6.40;;;8.20;99.90;;;;;;4973029;28;20210;-72
2021/11/17 08:32:57;;;;;;;13.40;7.33;;;8.30;99.90;;;;;;4974050;28;20262;-74
2021/11/17 08:35:26;;;;;;;11.87;6.63;;;8.30;99.90;;;;;;4973518;28;20256;-72
2021/11/17 08:37:54;;;;;;;9.43;5.57;;;8.30;99.90;;;;;;4974865;28;20210;-73
2021/11/17 08:40:23;;;;;;;7.97;5.30;;;8.30;99.90;;;;;;4973660;28;20221;-72
2021/11/17 08:42:52;;;;;;;9.90;5.73;;;8.20;99.90;;;;;;4974547;28;20246;-72
2021/11/17 08:45:19;;;;;;;7.93;5.90;;;8.10;99.90;;;;;;4973720;28;20256;-72
2021/11/17 08:47:46;;;;;;;7.80;5.53;;;8.20;99.90;;;;;;4986435;28;20217;-72
2021/11/17 08:50:16;;;;;;;5.73;4.80;;;8.20;99.90;;;;;;4973631;28;20305;-71
2021/11/17 08:52:44;;;;;;;7.00;5.03;;;8.20;99.90;;;;;;4974080;28;20280;-71
2021/11/17 08:55:12;;;;;;;7.13;5.33;;;8.20;99.90;;;;;;4973446;28;20256;-73
2021/11/17 08:57:40;;;;;;;7.87;4.93;;;8.30;99.90;;;;;;4972814;28;20217;-71
2021/11/17 09:00:12;;;;;;;9.33;6.27;;;8.30;99.90;;;;;;4973441;28;20209;-71
2021/11/17 09:02:41;;;;;;;7.23;5.53;;;8.30;99.90;;;;;;4973892;28;20717;-71
2021/11/17 09:05:11;;;;;;;8.13;5.27;;;8.30;99.90;;;;;;4972660;28;20685;-71
2021/11/17 09:07:40;;;;;;;9.53;5.33;;;8.40;99.90;;;;;;4971481;28;20202;-72
2021/11/17 09:10:09;;;;;;;8.73;7.13;;;8.40;99.90;;;;;;4972216;28;20294;-72
2021/11/17 09:12:36;;;;;;;8.83;5.20;;;8.40;99.90;;;;;;4972424;28;20206;-72
2021/11/17 09:15:04;;;;;;;9.93;5.90;;;8.50;99.90;;;;;;4973243;28;20256;-72
2021/11/17 09:17:33;;;;;;;10.63;7.57;;;8.50;99.90;;;;;;4973791;28;20205;-72
2021/11/17 09:20:00;;;;;;;12.13;5.60;;;8.40;99.90;;;;;;4973380;28;20209;-73
2021/11/17 09:22:27;;;;;;;7.63;4.80;;;8.40;99.90;;;;;;4973566;28;20205;-72
2021/11/17 09:24:54;;;;;;;7.27;5.33;;;8.30;99.90;;;;;;4973186;28;20296;-72
2021/11/17 09:27:21;;;;;;;6.80;5.03;;;8.40;99.90;;;;;;4972350;28;20665;-73
2021/11/17 09:29:48;;;;;;;8.00;6.27;;;8.40;99.90;;;;;;4973345;28;20697;-72
2021/11/17 09:32:15;;;;;;;8.00;5.40;;;8.40;99.90;;;;;;4972535;28;20209;-72
2021/11/17 09:34:44;;;;;;;7.63;6.37;;;8.50;99.90;;;;;;4972771;28;20214;-72
2021/11/17 09:37:11;;;;;;;6.93;5.73;;;8.50;99.90;;;;;;4972692;28;20201;-72
2021/11/17 09:39:42;;;;;;;8.30;5.93;;;8.50;99.90;;;;;;4973232;28;20588;-72
2021/11/17 09:42:12;;;;;;;6.60;5.23;;;8.50;99.90;;;;;;4971983;28;20210;-72
2021/11/17 09:44:43;;;;;;;8.10;4.23;;;8.60;99.90;;;;;;4972627;28;20233;-72
2021/11/17 09:47:14;;;;;;;7.23;4.63;;;8.70;99.90;;;;;;4972610;28;20256;-72
2021/11/17 09:49:49;;;;;;;8.00;4.57;;;8.70;99.90;;;;;;4972619;28;20256;-72
2021/11/17 09:52:19;;;;;;;7.40;5.97;;;8.80;99.90;;;;;;4972374;28;20566;-71
2021/11/17 09:54:51;;;;;;;7.20;4.20;;;9.00;99.90;;;;;;4973107;28;20213;-72
2021/11/17 09:57:20;;;;;;;5.63;4.03;;;9.00;99.90;;;;;;4972679;28;20739;-71
2021/11/17 09:59:50;;;;;;;7.50;4.60;;;9.00;99.90;;;;;;4973020;28;20213;-74
2021/11/17 10:02:21;;;;;;;7.37;4.97;;;9.10;99.90;;;;;;4972669;28;20206;-74
2021/11/17 10:04:54;;;;;;;6.43;4.90;;;9.20;99.90;;;;;;4971423;28;20272;-73
2021/11/17 10:08:03;;;;;;;7.03;4.10;;;9.10;99.90;;;;;;4963607;28;20632;-73
2021/11/17 10:13:17;;;;;;;6.17;3.80;;;9.00;99.90;;;;;;4968209;28;20228;-73
2021/11/17 10:15:47;;;;;;;8.53;4.23;;;9.00;99.90;;;;;;4972425;28;20591;-72
2021/11/17 10:18:33;;;;;;;23.33;6.13;;;9.00;99.90;;;;;;4972292;28;20221;-72
2021/11/17 10:21:06;;;;;;;7.03;5.30;;;9.10;99.90;;;;;;4972261;28;20215;-73
2021/11/17 10:23:35;;;;;;;8.20;4.63;;;9.20;99.90;;;;;;4971941;28;20735;-72
2021/11/17 10:26:10;;;;;;;6.57;4.80;;;9.20;99.90;;;;;;4972496;28;20228;-72
2021/11/17 10:28:49;;;;;;;8.20;6.20;;;9.20;99.90;;;;;;4969213;28;20272;-73
2021/11/17 10:31:19;;;;;;;7.43;4.90;;;9.20;99.90;;;;;;4971763;28;20673;-72
2021/11/17 10:34:00;;;;;;;6.63;5.20;;;9.20;99.90;;;;;;4972380;28;20271;-73
2021/11/17 10:36:34;;;;;;;9.10;4.90;;;9.20;99.90;;;;;;4963615;28;20208;-73
2021/11/17 10:39:13;;;;;;;9.50;5.73;;;9.30;99.90;;;;;;4971455;28;20204;-73
2021/11/17 10:41:52;;;;;;;7.83;4.83;;;9.30;99.90;;;;;;4974701;28;20221;-73
2021/11/17 10:44:34;;;;;;;7.87;5.77;;;9.40;99.90;;;;;;4971683;28;20284;-73
2021/11/17 10:47:01;;;;;;;7.30;4.87;;;9.40;99.90;;;;;;4972269;28;20398;-73
2021/11/17 10:49:31;;;;;;;7.53;5.27;;;9.50;99.90;;;;;;4971757;28;20269;-72
2021/11/17 10:52:03;;;;;;;5.93;4.00;;;9.50;99.90;;;;;;4972082;28;20210;-75
2021/11/17 10:54:33;;;;;;;10.00;5.30;;;9.40;99.90;;;;;;4971836;28;20217;-71
2021/11/17 10:57:02;;;;;;;4.93;3.70;;;9.40;99.90;;;;;;4972391;28;20209;-73
2021/11/17 10:59:30;;;;;;;5.93;4.07;;;9.40;99.90;;;;;;4971112;28;20213;-72
2021/11/17 11:01:57;;;;;;;8.83;5.97;;;9.50;99.90;;;;;;4968301;28;20210;-73
2021/11/17 11:04:28;;;;;;;6.50;3.90;;;9.60;99.90;;;;;;4971194;28;20233;-73
2021/11/17 11:07:01;;;;;;;5.43;3.70;;;9.50;99.90;;;;;;4970230;28;20209;-72
2021/11/17 11:09:43;;;;;;;6.80;5.43;;;9.50;99.90;;;;;;4970083;28;20224;-73
2021/11/17 11:12:14;;;;;;;5.20;3.40;;;9.50;99.90;;;;;;4969733;28;20571;-74
2021/11/17 11:14:47;;;;;;;5.40;4.17;;;9.60;99.90;;;;;;4970170;28;20210;-73
2021/11/17 11:17:29;;;;;;;6.03;4.43;;;9.60;99.90;;;;;;4971160;28;20257;-73
2021/11/17 11:20:30;;;;;;;5.57;4.23;;;9.50;99.90;;;;;;4971017;28;20213;-72
2021/11/17 11:23:16;;;;;;;5.13;4.13;;;9.50;99.90;;;;;;4971093;28;20680;-74
2021/11/17 11:25:49;;;;;;;5.10;4.10;;;9.30;99.90;;;;;;4970940;28;20264;-72
2021/11/17 11:28:30;;;;;;;6.97;4.53;;;9.30;99.90;;;;;;4970471;28;20197;-74
2021/11/17 11:31:38;;;;;;;7.50;5.80;;;9.20;99.90;;;;;;4967461;28;20673;-72
2021/11/17 11:34:44;;;;;;;7.07;4.40;;;9.30;99.90;;;;;;4970154;28;20201;-74
2021/11/17 11:37:35;;;;;;;7.57;4.50;;;9.20;99.90;;;;;;4968337;28;20609;-73
2021/11/17 11:40:13;;;;;;;7.37;5.50;;;9.20;99.90;;;;;;4971713;28;20206;-73
2021/11/17 11:43:20;;;;;;;7.30;5.30;;;9.30;99.90;;;;;;4971133;28;20213;-73
2021/11/17 11:45:49;;;;;;;8.90;6.83;;;9.30;99.90;;;;;;4969423;28;20213;-73
2021/11/17 11:48:52;;;;;;;7.13;4.67;;;9.30;99.90;;;;;;4970297;28;20217;-72
2021/11/17 11:52:07;;;;;;;5.90;4.50;;;9.40;99.90;;;;;;4967137;28;20329;-73
2021/11/17 11:54:57;;;;;;;5.37;4.23;;;9.60;99.90;;;;;;4975408;28;20209;-72
2021/11/17 11:57:32;;;;;;;4.97;3.27;;;9.60;99.90;;;;;;4974703;28;20217;-74
2021/11/17 12:00:02;;;;;;;5.27;4.00;;;9.60;99.90;;;;;;4974182;28;20209;-75
2021/11/17 12:02:34;;;;;;;5.33;2.93;;;9.60;99.90;;;;;;4974969;28;20218;-73
2021/11/17 12:05:06;;;;;;;6.67;4.90;;;9.60;99.90;;;;;;4975057;28;20637;-74
2021/11/17 12:07:41;;;;;;;5.17;3.73;;;9.70;99.90;;;;;;4975372;28;20231;-73
2021/11/17 12:10:13;;;;;;;4.77;3.53;;;10.00;99.90;;;;;;4973612;28;20665;-74
2021/11/17 12:12:43;;;;;;;5.10;4.17;;;10.10;99.90;;;;;;4974543;28;20629;-74
2021/11/17 12:15:25;;;;;;;6.43;4.40;;;10.20;99.90;;;;;;4974528;28;20409;-75
2021/11/17 12:18:12;;;;;;;5.87;4.20;;;10.40;99.90;;;;;;4974707;28;20284;-74
2021/11/17 12:20:44;;;;;;;6.00;4.70;;;10.60;99.90;;;;;;4968887;28;20205;-75
2021/11/17 12:23:24;;;;;;;5.77;3.83;;;10.50;99.90;;;;;;4974461;28;20205;-74
2021/11/17 12:26:07;;;;;;;7.77;4.40;;;10.60;99.90;;;;;;4974530;28;20252;-75
2021/11/17 12:28:43;;;;;;;5.47;4.40;;;10.40;99.90;;;;;;4971302;28;20213;-74
2021/11/17 12:31:14;;;;;;;7.70;4.70;;;10.40;99.90;;;;;;4974335;28;20206;-75
2021/11/17 12:33:46;;;;;;;6.27;4.37;;;10.40;99.90;;;;;;4973973;28;20213;-75
2021/11/17 12:36:19;;;;;;;5.87;4.73;;;10.40;99.90;;;;;;4974171;28;20732;-74
2021/11/17 12:38:46;;;;;;;6.47;5.00;;;10.30;99.90;;;;;;4974156;28;20627;-74
2021/11/17 12:41:19;;;;;;;7.57;5.27;;;10.30;99.90;;;;;;4975365;28;20217;-74
2021/11/17 12:43:58;;;;;;;6.80;4.50;;;10.40;99.90;;;;;;4974093;28;20641;-75
2021/11/17 12:46:33;;;;;;;5.33;4.07;;;10.20;99.90;;;;;;4973961;28;20241;-76
2021/11/17 12:49:14;;;;;;;5.73;4.10;;;10.20;99.90;;;;;;4974122;28;20213;-74
2021/11/17 12:51:46;;;;;;;4.27;3.27;;;10.10;99.90;;;;;;4961595;28;20284;-74
2021/11/17 12:54:18;;;;;;;3.97;2.90;;;10.10;99.90;;;;;;4974206;28;20205;-77
2021/11/17 12:56:48;;;;;;;8.47;4.20;;;9.90;99.90;;;;;;4961261;28;20213;-75
2021/11/17 12:59:20;;;;;;;6.60;4.53;;;9.70;99.90;;;;;;4972733;28;20210;-75
2021/11/17 13:01:49;;;;;;;5.27;4.03;;;9.70;99.90;;;;;;4972767;28;20632;-74
2021/11/17 13:04:26;;;;;;;5.13;3.87;;;9.60;99.90;;;;;;4973541;28;20776;-74
2021/11/17 13:06:56;;;;;;;4.50;3.70;;;9.60;99.90;;;;;;4971065;28;20205;-73
2021/11/17 13:09:25;;;;;;;7.10;4.00;;;9.50;99.90;;;;;;4972588;28;20732;-73
2021/11/17 13:12:01;;;;;;;4.03;2.90;;;9.50;99.90;;;;;;4973402;28;20209;-74
2021/11/17 13:14:32;;;;;;;5.40;3.63;;;9.50;99.90;;;;;;4972957;28;20672;-73
2021/11/17 13:17:07;;;;;;;4.40;3.40;;;9.50;99.90;;;;;;4973402;28;20358;-73
2021/11/17 13:19:37;;;;;;;5.03;4.10;;;9.50;99.90;;;;;;4972695;28;20580;-74
2021/11/17 13:22:19;;;;;;;6.23;2.93;;;9.40;99.90;;;;;;4973175;28;20555;-74
2021/11/17 13:24:49;;;;;;;4.83;3.67;;;9.40;99.90;;;;;;4973321;28;20634;-75
2021/11/17 13:27:42;;;;;;;4.27;3.07;;;9.40;99.90;;;;;;4971641;28;20205;-73
2021/11/17 13:30:36;;;;;;;5.90;4.33;;;9.40;99.90;;;;;;4967959;28;20256;-74
2021/11/17 13:33:20;;;;;;;6.87;3.80;;;9.30;99.90;;;;;;4975759;28;20214;-75
2021/11/17 13:35:47;;;;;;;7.00;3.57;;;9.30;99.90;;;;;;4973182;28;20673;-74
2021/11/17 13:38:20;;;;;;;4.87;3.63;;;9.30;99.90;;;;;;4972965;28;20272;-74
2021/11/17 13:40:49;;;;;;;5.23;3.60;;;9.30;99.90;;;;;;4973345;28;20292;-75
2021/11/17 13:43:17;;;;;;;6.57;4.43;;;9.20;99.90;;;;;;4971939;28;20265;-74
2021/11/17 13:45:48;;;;;;;6.07;3.57;;;9.20;99.90;;;;;;4972441;28;20233;-74
2021/11/17 13:48:18;;;;;;;6.37;4.17;;;9.20;99.90;;;;;;4972682;28;20213;-73
2021/11/17 13:50:47;;;;;;;3.57;2.83;;;9.30;99.90;;;;;;4973117;28;20210;-73
2021/11/17 13:53:17;;;;;;;5.07;3.87;;;9.20;99.90;;;;;;4972166;28;20260;-74
2021/11/17 13:55:57;;;;;;;4.07;3.13;;;9.10;99.90;;;;;;4973148;28;20216;-73
2021/11/17 13:58:25;;;;;;;3.40;2.77;;;9.20;99.90;;;;;;4966446;28;20689;-74
2021/11/17 14:00:54;;;;;;;3.80;2.20;;;9.20;99.90;;;;;;4972303;28;20205;-74
2021/11/17 14:03:21;;;;;;;5.67;3.07;;;9.20;99.90;;;;;;4972470;28;20210;-73
2021/11/17 14:05:49;;;;;;;4.97;2.97;;;9.20;99.90;;;;;;4972844;28;20292;-75
2021/11/17 14:08:17;;;;;;;6.73;3.20;;;9.20;99.90;;;;;;4972218;28;20206;-75
2021/11/17 14:10:44;;;;;;;3.63;3.07;;;9.20;99.90;;;;;;4972350;28;20205;-74
2021/11/17 14:13:12;;;;;;;5.50;4.03;;;9.20;99.90;;;;;;4971861;28;20206;-76
2021/11/17 14:15:41;;;;;;;6.87;3.93;;;9.20;99.90;;;;;;4970651;28;20260;-74
2021/11/17 14:18:12;;;;;;;4.20;3.67;;;9.10;99.90;;;;;;4971956;28;20213;-74
2021/11/17 14:20:40;;;;;;;3.87;2.90;;;9.10;99.90;;;;;;4972070;28;20209;-74
2021/11/17 14:23:08;;;;;;;4.90;3.77;;;9.10;99.90;;;;;;4972652;28;20584;-75
2021/11/17 14:25:36;;;;;;;6.87;4.60;;;9.10;99.90;;;;;;4970821;28;20280;-74
2021/11/17 14:28:06;;;;;;;5.57;3.57;;;9.10;99.90;;;;;;4969309;28;20268;-74
2021/11/17 14:30:40;;;;;;;5.27;3.30;;;9.00;99.90;;;;;;4972231;28;20585;-75
2021/11/17 14:33:11;;;;;;;4.57;3.23;;;9.10;99.90;;;;;;4972671;28;20564;-74
2021/11/17 14:35:39;;;;;;;3.90;3.00;;;9.00;99.90;;;;;;4972292;28;21436;-73
2021/11/17 14:38:06;;;;;;;4.83;2.70;;;9.10;99.90;;;;;;4970399;28;20210;-73
2021/11/17 14:40:34;;;;;;;4.03;2.70;;;9.00;99.90;;;;;;4969929;28;20217;-73
2021/11/17 14:43:01;;;;;;;4.30;2.60;;;9.00;99.90;;;;;;4972345;28;20214;-73
2021/11/17 14:45:31;;;;;;;4.43;2.50;;;9.00;99.90;;;;;;4971348;28;20241;-74
2021/11/17 14:47:58;;;;;;;4.43;3.50;;;8.90;99.90;;;;;;4971248;28;20225;-75
2021/11/17 14:50:27;;;;;;;3.07;2.23;;;8.90;99.90;;;;;;4970982;28;20271;-76
2021/11/17 14:52:54;;;;;;;5.20;2.80;;;8.90;99.90;;;;;;4971693;28;20288;-77
2021/11/17 14:55:25;;;;;;;4.90;2.83;;;8.90;99.90;;;;;;4971228;28;20280;-74
2021/11/17 14:57:54;;;;;;;2.83;2.13;;;8.90;99.90;;;;;;4971713;28;20217;-76
2021/11/17 15:00:24;;;;;;;5.40;3.13;;;8.90;99.90;;;;;;4971005;28;20212;-73
2021/11/17 15:02:54;;;;;;;7.07;4.10;;;8.90;99.90;;;;;;4970844;28;20213;-73
2021/11/17 15:05:22;;;;;;;6.83;5.07;;;8.90;99.90;;;;;;4971512;28;20237;-73
2021/11/17 15:07:50;;;;;;;6.30;4.10;;;8.90;99.90;;;;;;4971946;28;20300;-73
2021/11/17 15:10:18;;;;;;;4.00;2.57;;;8.80;99.90;;;;;;4971300;28;20272;-74
2021/11/17 15:12:45;;;;;;;5.67;3.07;;;8.80;99.90;;;;;;4971618;28;20205;-74
2021/11/17 15:15:15;;;;;;;23.33;8.23;;;8.80;99.90;;;;;;4971373;28;20620;-73
2021/11/17 15:17:43;;;;;;;5.10;3.70;;;8.80;99.90;;;;;;4971969;28;20214;-72
2021/11/17 15:20:11;;;;;;;6.77;3.97;;;8.80;99.90;;;;;;4971161;28;20201;-72
2021/11/17 15:22:41;;;;;;;6.97;4.53;;;8.80;99.90;;;;;;4972032;28;20568;-73
2021/11/17 15:25:11;;;;;;;3.67;2.30;;;8.80;99.90;;;;;;4969525;28;20724;-74
2021/11/17 15:27:41;;;;;;;6.07;4.30;;;8.80;99.90;;;;;;4971240;28;20673;-73
2021/11/17 15:30:12;;;;;;;5.00;4.10;;;8.80;99.90;;;;;;4971068;28;20213;-72
2021/11/17 15:32:39;;;;;;;6.80;4.00;;;8.80;99.90;;;;;;4971911;28;20669;-73
2021/11/17 15:35:07;;;;;;;7.47;3.87;;;8.70;99.90;;;;;;4971801;28;20217;-71
2021/11/17 15:37:35;;;;;;;8.33;5.57;;;8.80;99.90;;;;;;4969857;28;20252;-73
2021/11/17 15:40:03;;;;;;;7.60;4.20;;;8.80;99.90;;;;;;4971274;28;20732;-74
2021/11/17 15:42:32;;;;;;;7.87;3.30;;;8.90;99.90;;;;;;4970752;28;20669;-72
2021/11/17 15:44:59;;;;;;;4.20;3.30;;;8.90;99.90;;;;;;4963199;28;20236;-72
2021/11/17 15:47:26;;;;;;;4.93;1.70;;;8.90;99.90;;;;;;4969946;28;20704;-72
2021/11/17 15:49:55;;;;;;;3.73;2.27;;;8.80;99.90;;;;;;4970124;28;20213;-73
2021/11/17 15:52:22;;;;;;;4.17;2.50;;;8.80;99.90;;;;;;4970488;28;20291;-73
2021/11/17 15:54:50;;;;;;;5.50;3.63;;;8.80;99.90;;;;;;4970244;28;20213;-73
2021/11/17 15:57:17;;;;;;;3.60;2.40;;;8.80;99.90;;;;;;4970916;28;20265;-72
2021/11/17 15:59:45;;;;;;;4.73;3.67;;;8.90;99.90;;;;;;4968618;28;20689;-73
2021/11/17 16:02:14;;;;;;;5.50;3.60;;;8.80;99.90;;;;;;4970443;28;20287;-74
2021/11/17 16:04:42;;;;;;;5.20;2.30;;;8.80;99.90;;;;;;4971076;28;20280;-73